sensor_id;sensor_type;location;lat;lon;timestamp;temperature;humidity
6520;DHT22;3293;51.690;5.982;2022-12-29T00:02:16;10.60;99.90
6520;DHT22;3293;51.690;5.982;2022-12-29T00:07:17;10.60;99.90
6520;DHT22;3293;51.690;5.982;2022-12-29T00:12:17;10.70;99.90
6520;DHT22;3293;51.690;5.982;2022-12-29T00:17:17;10.70;99.90
6520;DHT22;3293;51.690;5.982;2022-12-29T00:22:17;10.70;99.90
6520;DHT22;3293;51.690;5.982;2022-12-29T00:27:36;10.70;99.90
6520;DHT22;3293;51.690;5.982;2022-12-29T00:32:54;10.60;99.90
6520;DHT22;3293;51.690;5.982;2022-12-29T00:38:13;10.50;99.90
6520;DHT22;3293;51.690;5.982;2022-12-29T00:43:31;10.50;99.90
6520;DHT22;3293;51.690;5.982;2022-12-29T00:48:50;10.40;99.90
6520;DHT22;3293;51.690;5.982;2022-12-29T00:54:08;10.40;99.90
6520;DHT22;3293;51.690;5.982;2022-12-29T00:59:10;10.30;99.90
6520;DHT22;3293;51.690;5.982;2022-12-29T01:04:10;10.20;99.90
6520;DHT22;3293;51.690;5.982;2022-12-29T01:09:10;10.30;99.90
6520;DHT22;3293;51.690;5.982;2022-12-29T01:14:29;10.30;99.90
6520;DHT22;3293;51.690;5.982;2022-12-29T01:19:30;10.30;99.90
6520;DHT22;3293;51.690;5.982;2022-12-29T01:24:30;10.30;99.90
6520;DHT22;3293;51.690;5.982;2022-12-29T01:29:30;10.30;99.90
6520;DHT22;3293;51.690;5.982;2022-12-29T01:34:30;10.40;99.90
6520;DHT22;3293;51.690;5.982;2022-12-29T01:39:30;10.40;99.90
6520;DHT22;3293;51.690;5.982;2022-12-29T01:44:51;10.30;99.90
6520;DHT22;3293;51.690;5.982;2022-12-29T01:49:55;10.30;99.90
6520;DHT22;3293;51.690;5.982;2022-12-29T01:54:56;10.40;99.90
6520;DHT22;3293;51.690;5.982;2022-12-29T02:00:08;10.30;99.90
6520;DHT22;3293;51.690;5.982;2022-12-29T02:05:17;10.30;99.90
6520;DHT22;3293;51.690;5.982;2022-12-29T02:10:21;10.40;99.90
6520;DHT22;3293;51.690;5.982;2022-12-29T02:15:36;10.40;99.90
6520;DHT22;3293;51.690;5.982;2022-12-29T02:36:36;10.60;99.90
6520;DHT22;3293;51.690;5.982;2022-12-29T02:47:14;10.70;99.90
6520;DHT22;3293;51.690;5.982;2022-12-29T02:52:25;10.80;99.90
6520;DHT22;3293;51.690;5.982;2022-12-29T02:57:35;10.80;99.90
6520;DHT22;3293;51.690;5.982;2022-12-29T03:02:50;10.80;99.90
6520;DHT22;3293;51.690;5.982;2022-12-29T03:08:23;10.70;99.90
6520;DHT22;3293;51.690;5.982;2022-12-29T03:13:46;10.70;99.90
6520;DHT22;3293;51.690;5.982;2022-12-29T03:19:30;10.80;99.90
6520;DHT22;3293;51.690;5.982;2022-12-29T03:24:41;10.90;99.90
6520;DHT22;3293;51.690;5.982;2022-12-29T03:29:47;10.80;99.90
6520;DHT22;3293;51.690;5.982;2022-12-29T03:34:53;10.90;99.90
6520;DHT22;3293;51.690;5.982;2022-12-29T03:39:53;10.80;99.90
6520;DHT22;3293;51.690;5.982;2022-12-29T03:44:56;10.80;99.90
6520;DHT22;3293;51.690;5.982;2022-12-29T03:49:56;10.80;99.90
6520;DHT22;3293;51.690;5.982;2022-12-29T03:54:55;10.80;99.90
6520;DHT22;3293;51.690;5.982;2022-12-29T03:59:55;10.80;99.90
6520;DHT22;3293;51.690;5.982;2022-12-29T04:04:55;10.70;99.90
6520;DHT22;3293;51.690;5.982;2022-12-29T04:09:55;10.60;99.90
6520;DHT22;3293;51.690;5.982;2022-12-29T04:14:55;10.50;99.90
6520;DHT22;3293;51.690;5.982;2022-12-29T04:19:55;10.50;99.90
6520;DHT22;3293;51.690;5.982;2022-12-29T04:25:15;10.50;99.90
6520;DHT22;3293;51.690;5.982;2022-12-29T04:30:15;10.50;99.90
6520;DHT22;3293;51.690;5.982;2022-12-29T04:35:15;10.50;99.90
6520;DHT22;3293;51.690;5.982;2022-12-29T04:40:15;10.40;99.90
6520;DHT22;3293;51.690;5.982;2022-12-29T04:45:15;10.30;99.90
6520;DHT22;3293;51.690;5.982;2022-12-29T04:50:15;10.20;99.90
6520;DHT22;3293;51.690;5.982;2022-12-29T04:55:15;10.00;99.90
6520;DHT22;3293;51.690;5.982;2022-12-29T05:00:15;9.90;99.90
6520;DHT22;3293;51.690;5.982;2022-12-29T05:05:16;9.80;99.90
6520;DHT22;3293;51.690;5.982;2022-12-29T05:10:16;9.70;99.90
6520;DHT22;3293;51.690;5.982;2022-12-29T05:15:16;9.60;99.90
6520;DHT22;3293;51.690;5.982;2022-12-29T05:20:17;9.60;99.90
6520;DHT22;3293;51.690;5.982;2022-12-29T05:25:17;9.50;99.90
6520;DHT22;3293;51.690;5.982;2022-12-29T05:30:17;9.50;99.90
6520;DHT22;3293;51.690;5.982;2022-12-29T05:35:17;9.50;99.90
6520;DHT22;3293;51.690;5.982;2022-12-29T05:40:17;9.50;99.90
6520;DHT22;3293;51.690;5.982;2022-12-29T05:45:17;9.40;99.90
6520;DHT22;3293;51.690;5.982;2022-12-29T05:50:16;9.40;99.90
6520;DHT22;3293;51.690;5.982;2022-12-29T05:55:17;9.30;99.90
6520;DHT22;3293;51.690;5.982;2022-12-29T06:00:17;9.30;99.90
6520;DHT22;3293;51.690;5.982;2022-12-29T06:05:16;9.50;99.90
6520;DHT22;3293;51.690;5.982;2022-12-29T06:10:17;9.70;99.90
6520;DHT22;3293;51.690;5.982;2022-12-29T06:15:17;9.70;99.90
6520;DHT22;3293;51.690;5.982;2022-12-29T06:20:17;9.90;99.90
6520;DHT22;3293;51.690;5.982;2022-12-29T06:25:17;10.00;99.90
6520;DHT22;3293;51.690;5.982;2022-12-29T06:30:17;9.90;99.90
6520;DHT22;3293;51.690;5.982;2022-12-29T06:35:17;10.00;99.90
6520;DHT22;3293;51.690;5.982;2022-12-29T06:40:17;9.90;99.90
6520;DHT22;3293;51.690;5.982;2022-12-29T06:45:17;10.00;99.90
6520;DHT22;3293;51.690;5.982;2022-12-29T06:50:17;9.90;99.90
6520;DHT22;3293;51.690;5.982;2022-12-29T06:55:17;9.90;99.90
6520;DHT22;3293;51.690;5.982;2022-12-29T07:00:17;9.80;99.90
6520;DHT22;3293;51.690;5.982;2022-12-29T07:05:17;9.70;99.90
6520;DHT22;3293;51.690;5.982;2022-12-29T07:10:17;9.70;99.90
6520;DHT22;3293;51.690;5.982;2022-12-29T07:15:17;9.70;99.90
6520;DHT22;3293;51.690;5.982;2022-12-29T07:20:18;9.90;99.90
6520;DHT22;3293;51.690;5.982;2022-12-29T07:25:18;9.90;99.90
6520;DHT22;3293;51.690;5.982;2022-12-29T07:30:18;9.90;99.90
6520;DHT22;3293;51.690;5.982;2022-12-29T07:35:18;10.00;99.90
6520;DHT22;3293;51.690;5.982;2022-12-29T07:40:18;10.10;99.90
6520;DHT22;3293;51.690;5.982;2022-12-29T07:45:18;10.20;99.90
6520;DHT22;3293;51.690;5.982;2022-12-29T07:50:18;10.40;99.90
6520;DHT22;3293;51.690;5.982;2022-12-29T07:55:18;10.30;99.90
6520;DHT22;3293;51.690;5.982;2022-12-29T08:00:18;10.30;99.90
6520;DHT22;3293;51.690;5.982;2022-12-29T08:05:18;10.20;99.90
6520;DHT22;3293;51.690;5.982;2022-12-29T08:10:18;10.20;99.90
6520;DHT22;3293;51.690;5.982;2022-12-29T08:15:18;10.10;99.90
6520;DHT22;3293;51.690;5.982;2022-12-29T08:20:18;10.10;99.90
6520;DHT22;3293;51.690;5.982;2022-12-29T08:25:19;10.20;99.90
6520;DHT22;3293;51.690;5.982;2022-12-29T08:30:19;10.20;99.90
6520;DHT22;3293;51.690;5.982;2022-12-29T08:35:19;10.30;99.90
6520;DHT22;3293;51.690;5.982;2022-12-29T08:40:19;10.40;99.90
6520;DHT22;3293;51.690;5.982;2022-12-29T08:45:19;10.40;99.90
6520;DHT22;3293;51.690;5.982;2022-12-29T08:50:19;10.50;99.90
6520;DHT22;3293;51.690;5.982;2022-12-29T08:55:19;10.60;99.90
6520;DHT22;3293;51.690;5.982;2022-12-29T09:00:19;10.60;99.90
6520;DHT22;3293;51.690;5.982;2022-12-29T09:05:20;10.60;99.90
6520;DHT22;3293;51.690;5.982;2022-12-29T09:10:20;10.80;99.90
6520;DHT22;3293;51.690;5.982;2022-12-29T09:15:20;11.00;99.90
6520;DHT22;3293;51.690;5.982;2022-12-29T09:20:20;11.10;99.90
6520;DHT22;3293;51.690;5.982;2022-12-29T09:25:20;11.10;99.90
6520;DHT22;3293;51.690;5.982;2022-12-29T09:30:23;11.10;99.90
6520;DHT22;3293;51.690;5.982;2022-12-29T09:35:23;11.10;99.90
6520;DHT22;3293;51.690;5.982;2022-12-29T09:40:29;11.10;99.90
6520;DHT22;3293;51.690;5.982;2022-12-29T09:45:39;11.10;99.90
6520;DHT22;3293;51.690;5.982;2022-12-29T09:50:44;11.20;99.90
6520;DHT22;3293;51.690;5.982;2022-12-29T09:55:53;11.30;99.90
6520;DHT22;3293;51.690;5.982;2022-12-29T10:01:01;11.10;99.90
6520;DHT22;3293;51.690;5.982;2022-12-29T10:11:16;11.00;99.90
6520;DHT22;3293;51.690;5.982;2022-12-29T10:21:34;10.80;99.90
6520;DHT22;3293;51.690;5.982;2022-12-29T10:26:43;10.70;99.90
6520;DHT22;3293;51.690;5.982;2022-12-29T10:31:54;10.70;99.90
6520;DHT22;3293;51.690;5.982;2022-12-29T10:37:02;10.70;99.90
6520;DHT22;3293;51.690;5.982;2022-12-29T10:42:11;10.60;99.90
6520;DHT22;3293;51.690;5.982;2022-12-29T10:47:19;10.50;99.90
6520;DHT22;3293;51.690;5.982;2022-12-29T10:52:22;10.40;99.90
6520;DHT22;3293;51.690;5.982;2022-12-29T10:57:33;10.30;99.90
6520;DHT22;3293;51.690;5.982;2022-12-29T11:07:43;10.40;99.90
6520;DHT22;3293;51.690;5.982;2022-12-29T11:12:56;10.30;99.90
6520;DHT22;3293;51.690;5.982;2022-12-29T11:17:57;10.20;99.90
6520;DHT22;3293;51.690;5.982;2022-12-29T11:22:59;10.10;99.90
6520;DHT22;3293;51.690;5.982;2022-12-29T11:28:15;10.10;99.90
6520;DHT22;3293;51.690;5.982;2022-12-29T11:33:17;10.10;99.90
6520;DHT22;3293;51.690;5.982;2022-12-29T11:38:20;10.20;99.90
6520;DHT22;3293;51.690;5.982;2022-12-29T11:43:38;10.30;99.90
6520;DHT22;3293;51.690;5.982;2022-12-29T11:48:41;10.30;99.90
6520;DHT22;3293;51.690;5.982;2022-12-29T11:53:46;10.10;99.90
6520;DHT22;3293;51.690;5.982;2022-12-29T11:58:46;10.10;99.90
6520;DHT22;3293;51.690;5.982;2022-12-29T12:04:07;10.20;99.90
6520;DHT22;3293;51.690;5.982;2022-12-29T12:09:26;10.10;99.90
6520;DHT22;3293;51.690;5.982;2022-12-29T12:14:43;10.00;99.90
6520;DHT22;3293;51.690;5.982;2022-12-29T12:20:03;10.30;99.90
6520;DHT22;3293;51.690;5.982;2022-12-29T12:25:23;10.40;99.90
6520;DHT22;3293;51.690;5.982;2022-12-29T12:30:28;10.50;99.90
6520;DHT22;3293;51.690;5.982;2022-12-29T13:18:11;10.90;99.90
6520;DHT22;3293;51.690;5.982;2022-12-29T13:38:46;10.80;99.90
6520;DHT22;3293;51.690;5.982;2022-12-29T13:43:49;10.80;99.90
6520;DHT22;3293;51.690;5.982;2022-12-29T13:49:01;10.80;99.90
6520;DHT22;3293;51.690;5.982;2022-12-29T13:54:22;10.60;99.90
6520;DHT22;3293;51.690;5.982;2022-12-29T14:00:00;10.30;99.90
6520;DHT22;3293;51.690;5.982;2022-12-29T14:05:05;9.90;99.90
6520;DHT22;3293;51.690;5.982;2022-12-29T14:10:38;9.60;99.90
6520;DHT22;3293;51.690;5.982;2022-12-29T14:15:53;9.30;99.90
6520;DHT22;3293;51.690;5.982;2022-12-29T14:21:10;9.20;99.90
6520;DHT22;3293;51.690;5.982;2022-12-29T14:36:55;9.10;99.90
6520;DHT22;3293;51.690;5.982;2022-12-29T14:47:04;9.10;99.90
6520;DHT22;3293;51.690;5.982;2022-12-29T14:52:22;9.20;99.90
6520;DHT22;3293;51.690;5.982;2022-12-29T14:57:28;9.10;99.90
6520;DHT22;3293;51.690;5.982;2022-12-29T15:02:38;9.00;99.90
6520;DHT22;3293;51.690;5.982;2022-12-29T15:07:39;9.00;99.90
6520;DHT22;3293;51.690;5.982;2022-12-29T15:12:47;9.00;99.90
6520;DHT22;3293;51.690;5.982;2022-12-29T15:17:51;9.00;99.90
6520;DHT22;3293;51.690;5.982;2022-12-29T15:28:04;9.00;99.90
6520;DHT22;3293;51.690;5.982;2022-12-29T15:33:18;9.10;99.90
6520;DHT22;3293;51.690;5.982;2022-12-29T15:38:27;9.10;99.90
6520;DHT22;3293;51.690;5.982;2022-12-29T15:43:40;9.20;99.90
6520;DHT22;3293;51.690;5.982;2022-12-29T15:48:41;9.20;99.90
6520;DHT22;3293;51.690;5.982;2022-12-29T15:53:41;9.20;99.90
6520;DHT22;3293;51.690;5.982;2022-12-29T15:58:45;9.20;99.90
6520;DHT22;3293;51.690;5.982;2022-12-29T16:03:46;9.10;99.90
6520;DHT22;3293;51.690;5.982;2022-12-29T16:08:56;9.00;99.90
6520;DHT22;3293;51.690;5.982;2022-12-29T16:13:56;9.00;99.90
6520;DHT22;3293;51.690;5.982;2022-12-29T16:18:57;9.00;99.90
6520;DHT22;3293;51.690;5.982;2022-12-29T16:24:01;9.10;99.90
6520;DHT22;3293;51.690;5.982;2022-12-29T16:29:05;9.00;99.90
6520;DHT22;3293;51.690;5.982;2022-12-29T16:34:25;8.90;99.90
6520;DHT22;3293;51.690;5.982;2022-12-29T16:39:37;8.90;99.90
6520;DHT22;3293;51.690;5.982;2022-12-29T16:44:39;8.80;99.90
6520;DHT22;3293;51.690;5.982;2022-12-29T16:49:41;8.70;99.90
6520;DHT22;3293;51.690;5.982;2022-12-29T16:54:42;8.60;99.90
6520;DHT22;3293;51.690;5.982;2022-12-29T16:59:51;8.50;99.90
6520;DHT22;3293;51.690;5.982;2022-12-29T17:04:52;8.50;99.90
6520;DHT22;3293;51.690;5.982;2022-12-29T17:09:52;8.50;99.90
6520;DHT22;3293;51.690;5.982;2022-12-29T17:14:56;8.50;99.90
6520;DHT22;3293;51.690;5.982;2022-12-29T17:20:00;8.50;99.90
6520;DHT22;3293;51.690;5.982;2022-12-29T17:25:02;8.50;99.90
6520;DHT22;3293;51.690;5.982;2022-12-29T17:30:12;8.40;99.90
6520;DHT22;3293;51.690;5.982;2022-12-29T17:35:14;8.40;99.90
6520;DHT22;3293;51.690;5.982;2022-12-29T17:40:20;8.30;99.90
6520;DHT22;3293;51.690;5.982;2022-12-29T17:45:27;8.10;99.90
6520;DHT22;3293;51.690;5.982;2022-12-29T17:50:29;8.00;99.90
6520;DHT22;3293;51.690;5.982;2022-12-29T17:55:30;7.90;99.90
6520;DHT22;3293;51.690;5.982;2022-12-29T18:00:30;7.80;99.90
6520;DHT22;3293;51.690;5.982;2022-12-29T18:05:30;7.80;99.90
6520;DHT22;3293;51.690;5.982;2022-12-29T18:10:30;7.70;99.90
6520;DHT22;3293;51.690;5.982;2022-12-29T18:15:35;7.70;99.90
6520;DHT22;3293;51.690;5.982;2022-12-29T18:20:35;7.70;99.90
6520;DHT22;3293;51.690;5.982;2022-12-29T18:30:45;7.60;99.90
6520;DHT22;3293;51.690;5.982;2022-12-29T18:36:02;7.60;99.90
6520;DHT22;3293;51.690;5.982;2022-12-29T18:41:03;7.50;99.90
6520;DHT22;3293;51.690;5.982;2022-12-29T18:46:03;7.50;99.90
6520;DHT22;3293;51.690;5.982;2022-12-29T18:51:03;7.40;99.90
6520;DHT22;3293;51.690;5.982;2022-12-29T18:56:03;7.40;99.90
6520;DHT22;3293;51.690;5.982;2022-12-29T19:01:06;7.30;99.90
6520;DHT22;3293;51.690;5.982;2022-12-29T19:06:08;7.30;99.90
6520;DHT22;3293;51.690;5.982;2022-12-29T19:11:09;7.30;99.90
6520;DHT22;3293;51.690;5.982;2022-12-29T19:16:17;7.30;99.90
6520;DHT22;3293;51.690;5.982;2022-12-29T19:21:17;7.30;99.90
6520;DHT22;3293;51.690;5.982;2022-12-29T19:31:24;7.30;99.90
6520;DHT22;3293;51.690;5.982;2022-12-29T19:36:24;7.30;99.90
6520;DHT22;3293;51.690;5.982;2022-12-29T19:41:24;7.30;99.90
6520;DHT22;3293;51.690;5.982;2022-12-29T19:46:24;7.30;99.90
6520;DHT22;3293;51.690;5.982;2022-12-29T19:51:26;7.30;99.90
6520;DHT22;3293;51.690;5.982;2022-12-29T19:56:26;7.20;99.90
6520;DHT22;3293;51.690;5.982;2022-12-29T20:01:26;7.20;99.90
6520;DHT22;3293;51.690;5.982;2022-12-29T20:06:26;7.10;99.90
6520;DHT22;3293;51.690;5.982;2022-12-29T20:11:27;7.10;99.90
6520;DHT22;3293;51.690;5.982;2022-12-29T20:16:27;7.10;99.90
6520;DHT22;3293;51.690;5.982;2022-12-29T20:21:28;7.10;99.90
6520;DHT22;3293;51.690;5.982;2022-12-29T20:26:28;7.10;99.90
6520;DHT22;3293;51.690;5.982;2022-12-29T20:31:32;7.10;99.90
6520;DHT22;3293;51.690;5.982;2022-12-29T20:36:34;7.10;99.90
6520;DHT22;3293;51.690;5.982;2022-12-29T20:41:34;7.20;99.90
6520;DHT22;3293;51.690;5.982;2022-12-29T20:46:34;7.10;99.90
6520;DHT22;3293;51.690;5.982;2022-12-29T20:51:34;7.10;99.90
6520;DHT22;3293;51.690;5.982;2022-12-29T20:56:35;7.00;99.90
6520;DHT22;3293;51.690;5.982;2022-12-29T21:01:35;7.00;99.90
6520;DHT22;3293;51.690;5.982;2022-12-29T21:06:35;7.00;99.90
6520;DHT22;3293;51.690;5.982;2022-12-29T21:11:35;6.90;99.90
6520;DHT22;3293;51.690;5.982;2022-12-29T21:16:35;6.90;99.90
6520;DHT22;3293;51.690;5.982;2022-12-29T21:21:35;6.90;99.90
6520;DHT22;3293;51.690;5.982;2022-12-29T21:26:35;6.90;99.90
6520;DHT22;3293;51.690;5.982;2022-12-29T21:31:36;6.90;99.90
6520;DHT22;3293;51.690;5.982;2022-12-29T21:36:36;6.80;99.90
6520;DHT22;3293;51.690;5.982;2022-12-29T21:41:36;6.80;99.90
6520;DHT22;3293;51.690;5.982;2022-12-29T21:46:38;6.80;99.90
6520;DHT22;3293;51.690;5.982;2022-12-29T21:51:38;6.80;99.90
6520;DHT22;3293;51.690;5.982;2022-12-29T21:56:52;6.90;99.90
6520;DHT22;3293;51.690;5.982;2022-12-29T22:01:52;6.90;99.90
6520;DHT22;3293;51.690;5.982;2022-12-29T22:07:11;6.80;99.90
6520;DHT22;3293;51.690;5.982;2022-12-29T22:12:30;6.80;99.90
6520;DHT22;3293;51.690;5.982;2022-12-29T22:17:51;6.80;99.90
6520;DHT22;3293;51.690;5.982;2022-12-29T22:22:51;6.70;99.90
6520;DHT22;3293;51.690;5.982;2022-12-29T22:27:51;6.70;99.90
6520;DHT22;3293;51.690;5.982;2022-12-29T22:32:51;6.70;99.90
6520;DHT22;3293;51.690;5.982;2022-12-29T22:37:51;6.50;99.90
6520;DHT22;3293;51.690;5.982;2022-12-29T22:42:52;6.50;99.90
6520;DHT22;3293;51.690;5.982;2022-12-29T22:47:52;6.50;99.90
6520;DHT22;3293;51.690;5.982;2022-12-29T22:52:52;6.50;99.90
6520;DHT22;3293;51.690;5.982;2022-12-29T22:57:52;6.60;99.90
6520;DHT22;3293;51.690;5.982;2022-12-29T23:02:52;6.70;99.90
6520;DHT22;3293;51.690;5.982;2022-12-29T23:07:53;6.80;99.90
6520;DHT22;3293;51.690;5.982;2022-12-29T23:12:53;6.70;99.90
6520;DHT22;3293;51.690;5.982;2022-12-29T23:17:53;6.60;99.90
6520;DHT22;3293;51.690;5.982;2022-12-29T23:22:53;6.50;99.90
6520;DHT22;3293;51.690;5.982;2022-12-29T23:27:53;6.50;99.90
6520;DHT22;3293;51.690;5.982;2022-12-29T23:32:53;6.50;99.90
6520;DHT22;3293;51.690;5.982;2022-12-29T23:37:52;6.40;99.90
6520;DHT22;3293;51.690;5.982;2022-12-29T23:42:52;6.40;99.90
6520;DHT22;3293;51.690;5.982;2022-12-29T23:47:52;6.40;99.90
6520;DHT22;3293;51.690;5.982;2022-12-29T23:52:52;6.40;99.90
6520;DHT22;3293;51.690;5.982;2022-12-29T23:57:52;6.30;99.90
